Time;durP1;ratioP1;P1;durP2;ratioP2;P2;SDS_P1;SDS_P2;PMS_P1;PMS_P2;Temp;Humidity;BMP_temperature;BMP_pressure;BME280_temperature;BME280_humidity;BME280_pressure;Samples;Min_cycle;Max_cycle;Signal;HPM_P1;HPM_P2
2023/01/05 00:01:37;;;;;;;26.48;5.57;;;10.30;99.90;;;;;;5057534;28;20044;-87
2023/01/05 00:04:04;;;;;;;29.02;5.47;;;10.40;99.90;;;;;;5047179;28;20036;-87
2023/01/05 00:06:31;;;;;;;27.50;5.47;;;10.30;99.90;;;;;;5055427;28;20133;-87
2023/01/05 00:08:58;;;;;;;26.60;4.90;;;10.30;99.90;;;;;;5056476;28;20036;-87
2023/01/05 00:22:46;;;;;;;28.85;5.63;;;10.30;99.90;;;;;;5074069;28;20051;-87
2023/01/05 00:25:23;;;;;;;35.38;5.97;;;10.20;99.90;;;;;;5056487;28;20039;-86
2023/01/05 00:27:50;;;;;;;35.85;5.68;;;10.20;99.90;;;;;;5057222;28;20036;-86
2023/01/05 00:30:19;;;;;;;31.33;6.00;;;10.30;99.90;;;;;;5057132;28;20448;-86
2023/01/05 00:32:45;;;;;;;30.90;6.20;;;10.30;99.90;;;;;;5056229;28;20198;-86
2023/01/05 00:35:12;;;;;;;34.15;7.00;;;10.30;99.90;;;;;;5057704;28;20032;-87
2023/01/05 00:37:38;;;;;;;29.17;5.25;;;10.20;99.90;;;;;;5056798;28;20129;-86
2023/01/05 00:40:06;;;;;;;30.20;5.90;;;10.20;99.90;;;;;;5036434;28;20164;-86
2023/01/05 00:42:32;;;;;;;37.53;5.63;;;10.20;99.90;;;;;;5040662;28;20075;-87
2023/01/05 00:44:58;;;;;;;33.15;5.95;;;10.20;99.90;;;;;;5039764;28;20132;-87
2023/01/05 00:47:24;;;;;;;34.03;5.18;;;10.50;99.90;;;;;;5055054;28;20044;-87
2023/01/05 00:49:50;;;;;;;41.25;7.32;;;10.20;99.90;;;;;;5056663;28;20044;-86
2023/01/05 00:52:16;;;;;;;37.47;6.05;;;10.20;99.90;;;;;;5054549;28;20872;-86
2023/01/05 00:54:41;;;;;;;31.38;6.03;;;10.30;99.90;;;;;;5039127;28;20044;-87
2023/01/05 00:57:10;;;;;;;37.15;6.63;;;10.20;99.90;;;;;;5040199;28;20050;-86
2023/01/05 00:59:36;;;;;;;36.10;6.60;;;10.20;99.90;;;;;;5072803;28;20051;-86
2023/01/05 01:02:02;;;;;;;39.53;6.47;;;10.20;99.90;;;;;;5022459;28;20036;-86
2023/01/05 01:04:30;;;;;;;33.05;6.75;;;10.20;99.90;;;;;;5056051;28;20066;-86
2023/01/05 01:06:55;;;;;;;31.45;6.43;;;10.20;99.90;;;;;;5055130;28;20093;-87
2023/01/05 01:09:21;;;;;;;29.00;5.47;;;10.20;99.90;;;;;;5022894;28;20439;-86
2023/01/05 01:11:47;;;;;;;37.85;5.88;;;10.20;99.90;;;;;;5023146;28;20040;-86
2023/01/05 01:14:13;;;;;;;28.42;6.50;;;10.20;99.90;;;;;;5055445;28;20119;-86
2023/01/05 01:16:40;;;;;;;27.58;5.47;;;10.20;99.90;;;;;;5037732;28;20036;-86
2023/01/05 01:19:07;;;;;;;28.48;5.72;;;10.00;99.90;;;;;;5070503;28;20054;-87
2023/01/05 01:21:33;;;;;;;31.83;5.30;;;10.10;99.90;;;;;;5054578;28;20040;-87
2023/01/05 01:23:59;;;;;;;36.20;5.55;;;10.10;99.90;;;;;;5021832;28;20199;-86
2023/01/05 01:26:24;;;;;;;26.52;5.00;;;10.10;99.90;;;;;;5056275;28;20434;-86
2023/01/05 01:28:50;;;;;;;27.83;6.20;;;10.10;99.90;;;;;;5054612;28;21483;-86
2023/01/05 01:31:16;;;;;;;31.52;6.10;;;10.10;99.90;;;;;;5055653;28;20036;-85
2023/01/05 01:33:42;;;;;;;30.00;4.70;;;10.10;99.90;;;;;;5056044;28;20690;-87
2023/01/05 01:36:08;;;;;;;30.73;5.30;;;10.10;99.90;;;;;;5054575;28;20435;-87
2023/01/05 01:38:33;;;;;;;27.10;4.82;;;10.00;99.90;;;;;;5038435;28;20106;-86
2023/01/05 01:41:00;;;;;;;26.92;5.78;;;10.00;99.90;;;;;;5038232;28;20123;-86
2023/01/05 01:43:37;;;;;;;34.00;5.30;;;10.00;99.90;;;;;;5054757;28;20479;-86
2023/01/05 01:46:03;;;;;;;29.60;5.28;;;10.00;99.90;;;;;;5055911;28;20044;-86
2023/01/05 01:48:30;;;;;;;29.20;5.35;;;10.10;99.90;;;;;;5046351;28;20047;-86
2023/01/05 01:50:56;;;;;;;31.83;6.05;;;10.10;99.90;;;;;;5021854;28;20044;-86
2023/01/05 01:53:25;;;;;;;26.63;5.18;;;10.00;99.90;;;;;;5054231;28;20383;-86
2023/01/05 01:55:52;;;;;;;33.35;5.10;;;10.00;99.90;;;;;;5054610;28;20054;-86
2023/01/05 01:58:22;;;;;;;33.05;5.22;;;10.10;99.90;;;;;;5038389;28;20036;-87
2023/01/05 02:00:47;;;;;;;29.98;5.65;;;8.50;99.90;;;;;;5055658;28;20105;-86
2023/01/05 02:03:13;;;;;;;34.50;5.22;;;10.10;99.90;;;;;;5054484;28;20422;-86
2023/01/05 02:05:39;;;;;;;23.10;4.80;;;10.10;99.90;;;;;;5054991;28;20038;-86
2023/01/05 02:08:13;;;;;;;24.50;4.75;;;10.00;99.90;;;;;;5054742;28;20044;-86
2023/01/05 02:10:48;;;;;;;30.92;5.47;;;10.10;99.90;;;;;;5043460;28;20071;-86
2023/01/05 02:13:32;;;;;;;28.50;5.22;;;10.00;99.90;;;;;;5071058;28;20064;-86
2023/01/05 02:16:13;;;;;;;23.58;5.18;;;10.00;99.90;;;;;;5071151;28;20036;-86
2023/01/05 02:18:43;;;;;;;34.38;5.18;;;10.00;99.90;;;;;;5052054;28;20101;-85
2023/01/05 02:21:42;;;;;;;28.83;5.50;;;10.00;99.90;;;;;;5053706;28;20071;-86
2023/01/05 02:24:11;;;;;;;25.25;5.18;;;10.10;99.90;;;;;;5054116;28;20245;-86
2023/01/05 02:27:09;;;;;;;26.92;5.05;;;10.00;99.90;;;;;;5054411;28;20349;-86
2023/01/05 02:29:46;;;;;;;26.17;4.90;;;10.10;99.90;;;;;;5052899;28;20159;-86
2023/01/05 02:32:28;;;;;;;35.13;5.78;;;10.00;99.90;;;;;;5054071;28;20462;-86
2023/01/05 02:35:00;;;;;;;28.52;5.57;;;10.10;99.90;;;;;;5053071;28;20040;-86
2023/01/05 02:37:40;;;;;;;36.90;6.05;;;10.00;99.90;;;;;;5053447;28;20044;-86
2023/01/05 02:40:18;;;;;;;26.27;4.43;;;10.10;99.90;;;;;;5071053;28;20070;-86
2023/01/05 02:42:47;;;;;;;27.20;5.28;;;10.00;99.90;;;;;;5070402;28;20043;-85
2023/01/05 02:45:15;;;;;;;34.00;5.40;;;10.10;99.90;;;;;;5055069;28;20044;-86
2023/01/05 02:47:45;;;;;;;28.80;4.60;;;10.10;99.90;;;;;;5055023;28;20049;-86
2023/01/05 02:50:26;;;;;;;24.15;4.18;;;9.70;99.90;;;;;;5045673;28;20032;-86
2023/01/05 02:53:15;;;;;;;35.88;6.38;;;10.00;99.90;;;;;;5054229;28;20035;-86
2023/01/05 02:55:45;;;;;;;28.38;5.00;;;10.00;99.90;;;;;;5039840;28;20135;-86
2023/01/05 02:58:23;;;;;;;31.80;5.55;;;10.00;99.90;;;;;;5070336;28;20388;-87
2023/01/05 03:00:58;;;;;;;27.55;6.35;;;10.10;99.90;;;;;;5054226;28;20208;-86
2023/01/05 03:03:51;;;;;;;40.35;5.97;;;10.00;99.90;;;;;;5053751;28;20036;-86
2023/01/05 03:06:30;;;;;;;28.10;5.00;;;10.00;99.90;;;;;;5052272;28;20044;-86
2023/01/05 03:09:05;;;;;;;26.83;4.70;;;10.00;99.90;;;;;;5053360;28;20119;-86
2023/01/05 03:14:34;;;;;;;25.70;4.32;;;10.00;99.90;;;;;;5070021;28;20151;-86
2023/01/05 03:17:00;;;;;;;26.90;4.82;;;10.00;99.90;;;;;;5070235;28;20078;-86
2023/01/05 03:19:35;;;;;;;30.02;5.00;;;10.00;99.90;;;;;;5070080;28;20036;-86
2023/01/05 03:36:20;;;;;;;23.25;4.18;;;10.00;99.90;;;;;;5069269;28;20040;-86
2023/01/05 03:38:48;;;;;;;26.20;3.95;;;10.00;99.90;;;;;;5069580;28;20035;-87
2023/01/05 03:41:16;;;;;;;27.38;5.38;;;10.00;99.90;;;;;;5050265;28;20132;-87
2023/01/05 03:43:43;;;;;;;24.33;5.05;;;10.00;99.90;;;;;;5036331;28;20055;-87
2023/01/05 03:46:12;;;;;;;37.38;5.18;;;10.00;99.90;;;;;;5020755;28;20048;-86
2023/01/05 03:48:38;;;;;;;24.10;4.57;;;10.00;99.90;;;;;;5044872;28;20400;-87
2023/01/05 03:51:04;;;;;;;28.30;5.55;;;10.00;99.90;;;;;;5037282;28;20040;-87
2023/01/05 03:53:30;;;;;;;30.10;5.70;;;10.00;99.90;;;;;;5053802;28;20036;-86
2023/01/05 03:55:55;;;;;;;23.58;4.43;;;10.00;99.90;;;;;;5020335;28;20139;-86
2023/01/05 03:58:21;;;;;;;27.50;4.75;;;10.00;99.90;;;;;;5004234;28;20142;-85
2023/01/05 04:00:47;;;;;;;24.67;5.53;;;10.00;99.90;;;;;;5044900;28;20048;-86
2023/01/05 04:03:12;;;;;;;27.02;4.85;;;10.00;99.90;;;;;;5019954;28;20040;-86
2023/01/05 04:05:38;;;;;;;29.77;6.07;;;10.00;99.90;;;;;;5019974;28;20040;-87
2023/01/05 04:08:05;;;;;;;21.80;4.25;;;10.00;99.90;;;;;;5036225;28;20051;-86
2023/01/05 04:10:30;;;;;;;26.42;4.75;;;10.00;99.90;;;;;;5037677;28;20041;-86
2023/01/05 04:12:56;;;;;;;30.08;4.68;;;10.10;99.90;;;;;;5027931;28;20408;-86
2023/01/05 04:15:22;;;;;;;24.40;5.30;;;10.00;99.90;;;;;;5026986;28;20037;-86
2023/01/05 04:17:48;;;;;;;26.05;4.47;;;10.10;99.90;;;;;;5036679;28;20092;-87
2023/01/05 04:20:13;;;;;;;26.58;4.55;;;10.00;99.90;;;;;;5019697;28;20040;-87
2023/01/05 04:22:39;;;;;;;27.17;4.85;;;10.00;99.90;;;;;;5036131;28;20050;-87
2023/01/05 04:25:05;;;;;;;27.05;5.20;;;10.20;99.90;;;;;;5019628;28;20036;-87
2023/01/05 04:27:31;;;;;;;26.77;4.32;;;10.00;99.90;;;;;;5018626;28;20396;-85
2023/01/05 04:29:57;;;;;;;30.08;5.28;;;10.00;99.90;;;;;;5036132;28;20040;-86
2023/01/05 04:32:22;;;;;;;28.42;4.75;;;10.10;99.90;;;;;;5036636;28;20164;-86
2023/01/05 04:34:48;;;;;;;30.80;4.95;;;10.10;99.90;;;;;;5003566;28;20435;-86
2023/01/05 04:37:14;;;;;;;28.67;4.93;;;10.00;99.90;;;;;;5019587;28;20033;-87
2023/01/05 04:39:40;;;;;;;27.92;4.70;;;9.20;99.90;;;;;;5027086;28;20056;-86
2023/01/05 04:42:05;;;;;;;21.95;3.65;;;10.10;99.90;;;;;;5051889;28;20117;-87
2023/01/05 04:44:31;;;;;;;29.63;4.32;;;10.00;99.90;;;;;;5056932;28;20043;-86
2023/01/05 04:46:57;;;;;;;22.60;4.75;;;10.00;99.90;;;;;;5040090;28;20101;-86
2023/01/05 04:49:22;;;;;;;23.92;5.05;;;10.00;99.90;;;;;;5039231;28;20484;-86
2023/01/05 04:51:48;;;;;;;26.88;4.75;;;10.00;99.90;;;;;;5055376;28;20084;-87
2023/01/05 04:54:14;;;;;;;29.02;5.03;;;10.00;99.90;;;;;;5038547;28;20093;-86
2023/01/05 04:56:40;;;;;;;25.08;4.40;;;10.60;99.90;;;;;;5039686;28;20024;-87
2023/01/05 04:59:05;;;;;;;28.95;4.60;;;10.00;99.90;;;;;;5055936;28;20711;-86
2023/01/05 05:01:31;;;;;;;24.92;4.82;;;10.00;99.90;;;;;;5072515;28;20040;-86
2023/01/05 05:03:57;;;;;;;30.83;5.80;;;10.00;99.90;;;;;;5045284;28;20093;-86
2023/01/05 05:06:22;;;;;;;27.83;5.15;;;10.00;99.90;;;;;;5056058;28;20036;-87
2023/01/05 05:08:48;;;;;;;28.80;4.97;;;10.00;99.90;;;;;;5056117;28;20123;-86
2023/01/05 05:11:14;;;;;;;26.73;4.70;;;10.00;99.90;;;;;;5038899;28;20075;-86
2023/01/05 05:13:40;;;;;;;27.80;5.00;;;10.00;99.90;;;;;;5038141;28;20047;-87
2023/01/05 05:16:06;;;;;;;25.38;4.88;;;10.20;99.90;;;;;;5072795;28;20036;-86
2023/01/05 05:18:32;;;;;;;27.02;4.57;;;10.00;99.90;;;;;;5040012;28;20032;-86
2023/01/05 05:20:57;;;;;;;23.40;4.50;;;10.00;99.90;;;;;;5039108;28;20491;-87
2023/01/05 05:23:23;;;;;;;34.85;4.55;;;10.00;99.90;;;;;;5071317;28;20035;-86
2023/01/05 05:25:50;;;;;;;28.25;4.82;;;10.00;99.90;;;;;;5037735;28;20063;-86
2023/01/05 05:28:16;;;;;;;19.20;4.25;;;10.00;99.90;;;;;;5071965;28;20063;-86
2023/01/05 05:30:42;;;;;;;25.42;4.50;;;10.00;99.90;;;;;;5055866;28;20147;-86
2023/01/05 05:33:07;;;;;;;33.80;5.80;;;10.00;99.90;;;;;;5054557;28;20598;-86
2023/01/05 05:35:33;;;;;;;31.50;4.55;;;10.10;99.90;;;;;;5054936;28;20705;-86
2023/01/05 05:38:00;;;;;;;23.85;4.53;;;10.00;99.90;;;;;;5036889;28;20089;-86
2023/01/05 05:40:27;;;;;;;25.42;3.85;;;10.00;99.90;;;;;;5054645;28;20047;-87
2023/01/05 05:42:53;;;;;;;30.15;4.93;;;10.00;99.90;;;;;;5045637;28;20150;-86
2023/01/05 05:45:19;;;;;;;33.25;5.57;;;10.00;99.90;;;;;;5046006;28;20036;-86
2023/01/05 05:47:45;;;;;;;27.23;4.88;;;10.00;99.90;;;;;;5038750;28;20098;-86
2023/01/05 05:50:10;;;;;;;26.40;4.90;;;10.10;99.90;;;;;;5054827;28;20036;-86
2023/01/05 05:52:36;;;;;;;26.60;5.03;;;10.00;99.90;;;;;;5020654;28;20040;-86
2023/01/05 05:55:02;;;;;;;25.77;4.32;;;10.10;99.90;;;;;;5054396;28;20047;-86
2023/01/05 05:57:28;;;;;;;21.05;4.70;;;10.00;99.90;;;;;;5038062;28;20036;-87
2023/01/05 05:59:54;;;;;;;30.50;4.63;;;10.00;99.90;;;;;;5053943;28;20506;-87
2023/01/05 06:02:20;;;;;;;23.23;4.65;;;10.00;99.90;;;;;;5038229;28;20119;-86
2023/01/05 06:04:45;;;;;;;21.27;4.43;;;10.30;99.90;;;;;;5036817;28;20051;-86
2023/01/05 06:07:11;;;;;;;29.35;5.05;;;10.00;99.90;;;;;;5055536;28;20095;-86
2023/01/05 06:09:37;;;;;;;24.77;5.05;;;10.00;99.90;;;;;;5039742;28;20055;-86
2023/01/05 06:12:03;;;;;;;24.40;4.57;;;10.10;99.90;;;;;;5039763;28;20040;-86
2023/01/05 06:14:28;;;;;;;20.70;4.43;;;10.00;99.90;;;;;;5037950;28;20039;-86
2023/01/05 06:16:54;;;;;;;23.02;4.25;;;10.00;99.90;;;;;;5055271;28;20036;-86
2023/01/05 06:19:20;;;;;;;30.00;5.05;;;10.00;99.90;;;;;;5037316;28;20032;-86
2023/01/05 06:21:45;;;;;;;21.38;4.40;;;10.00;99.90;;;;;;5054964;28;20040;-86
2023/01/05 06:24:11;;;;;;;20.52;3.63;;;10.00;99.90;;;;;;5055145;28;20040;-86
2023/01/05 06:26:37;;;;;;;28.33;4.78;;;10.00;99.90;;;;;;5055155;28;20043;-86
2023/01/05 06:29:02;;;;;;;24.90;4.90;;;10.00;99.90;;;;;;5054562;28;20115;-86
2023/01/05 06:31:28;;;;;;;25.05;4.18;;;10.00;99.90;;;;;;5054592;28;20032;-86
2023/01/05 06:33:54;;;;;;;20.65;3.55;;;10.00;99.90;;;;;;5053855;28;20040;-86
2023/01/05 06:36:19;;;;;;;23.83;4.22;;;10.00;99.90;;;;;;5020262;28;20059;-86
2023/01/05 06:38:45;;;;;;;22.15;4.68;;;10.00;99.90;;;;;;5036772;28;20036;-86
2023/01/05 06:41:11;;;;;;;21.92;4.25;;;10.00;99.90;;;;;;5037967;28;20043;-86
2023/01/05 06:43:36;;;;;;;24.25;4.43;;;10.00;99.90;;;;;;5020741;28;20048;-86
2023/01/05 06:46:02;;;;;;;25.90;4.68;;;10.00;99.90;;;;;;5028284;28;20073;-86
2023/01/05 06:48:28;;;;;;;22.02;4.10;;;10.00;99.90;;;;;;5070087;28;20052;-87
2023/01/05 06:50:54;;;;;;;28.20;4.85;;;10.00;99.90;;;;;;5071145;28;20032;-87
2023/01/05 06:53:20;;;;;;;23.65;4.88;;;10.00;99.90;;;;;;5036955;28;20040;-86
2023/01/05 06:55:45;;;;;;;22.45;4.80;;;10.00;99.90;;;;;;5070805;28;20032;-87
2023/01/05 06:58:11;;;;;;;18.02;3.72;;;10.00;99.90;;;;;;5071064;28;20036;-86
2023/01/05 07:00:37;;;;;;;21.50;4.47;;;10.00;99.90;;;;;;5054696;28;20036;-86
2023/01/05 07:03:03;;;;;;;28.88;3.72;;;10.00;99.90;;;;;;5053787;28;20093;-86
2023/01/05 07:05:28;;;;;;;23.60;3.90;;;9.90;99.90;;;;;;5040185;28;20067;-88
2023/01/05 07:07:54;;;;;;;22.25;4.63;;;9.90;99.90;;;;;;5041631;28;20028;-90
2023/01/05 07:10:20;;;;;;;22.38;4.22;;;10.00;99.90;;;;;;5058426;28;20492;-91
2023/01/05 07:12:46;;;;;;;24.98;3.95;;;9.90;99.90;;;;;;5059481;28;20028;-92
2023/01/05 07:15:11;;;;;;;23.88;4.38;;;9.80;99.90;;;;;;5043891;28;20478;-90
2023/01/05 07:17:37;;;;;;;28.23;4.45;;;9.80;99.90;;;;;;5063356;28;20036;-90
2023/01/05 07:20:05;;;;;;;26.52;4.63;;;9.90;99.90;;;;;;5063226;28;20495;-90
2023/01/05 07:22:30;;;;;;;29.88;4.38;;;9.90;99.90;;;;;;5065067;28;20046;-89
2023/01/05 07:24:58;;;;;;;23.27;4.38;;;9.80;99.90;;;;;;5063830;28;20039;-90
2023/01/05 07:27:24;;;;;;;32.58;5.63;;;9.90;99.90;;;;;;5047305;28;20083;-91
2023/01/05 07:29:52;;;;;;;22.40;3.88;;;9.80;99.90;;;;;;5063743;28;20064;-91
2023/01/05 07:32:18;;;;;;;22.98;4.40;;;10.00;99.90;;;;;;5048419;28;20506;-89
2023/01/05 07:34:44;;;;;;;19.60;4.50;;;9.90;99.90;;;;;;5063115;28;20040;-91
2023/01/05 07:37:09;;;;;;;19.95;4.15;;;9.80;99.90;;;;;;5063160;28;20453;-89
2023/01/05 07:39:35;;;;;;;25.05;4.88;;;9.80;99.90;;;;;;5046577;28;20062;-89
2023/01/05 07:42:01;;;;;;;25.80;4.97;;;10.00;99.90;;;;;;5045358;28;20059;-90
2023/01/05 07:44:27;;;;;;;23.80;5.28;;;9.80;99.90;;;;;;5062638;28;20047;-90
2023/01/05 07:46:53;;;;;;;26.63;5.03;;;9.90;99.90;;;;;;5061341;28;20055;-91
2023/01/05 07:49:19;;;;;;;22.83;4.32;;;9.90;99.90;;;;;;5063567;28;20118;-90
2023/01/05 07:51:45;;;;;;;25.10;4.15;;;9.90;99.90;;;;;;5060983;28;20058;-89
2023/01/05 07:54:10;;;;;;;25.80;3.90;;;9.90;99.90;;;;;;5061902;28;20396;-91
2023/01/05 07:56:46;;;;;;;;;;;;;;;;;;;;;
2023/01/05 07:59:12;;;;;;;23.20;4.93;;;10.00;99.90;;;;;;5079527;28;20047;-91
2023/01/05 08:01:38;;;;;;;30.73;4.88;;;10.00;99.90;;;;;;5065915;28;20036;-91
2023/01/05 08:04:04;;;;;;;22.30;4.47;;;9.80;99.90;;;;;;5057377;28;20040;-91
2023/01/05 08:06:30;;;;;;;25.20;5.00;;;9.80;99.90;;;;;;5060816;28;20040;-90
2023/01/05 08:08:56;;;;;;;22.48;4.43;;;9.90;99.90;;;;;;5062068;28;20040;-89
2023/01/05 08:11:22;;;;;;;25.45;4.90;;;9.90;99.90;;;;;;5077861;28;20040;-89
2023/01/05 08:14:01;;;;;;;25.38;5.32;;;10.00;99.90;;;;;;5060910;28;20622;-90
2023/01/05 08:16:31;;;;;;;34.85;5.30;;;9.80;99.90;;;;;;5060886;28;20069;-91
2023/01/05 08:18:58;;;;;;;26.52;4.47;;;9.90;99.90;;;;;;5061523;28;20044;-90
2023/01/05 08:21:24;;;;;;;17.92;3.63;;;10.00;99.90;;;;;;5061671;28;20484;-90
2023/01/05 08:23:52;;;;;;;20.67;4.38;;;10.00;99.90;;;;;;5061434;28;20047;-90
2023/01/05 08:26:21;;;;;;;23.77;4.55;;;9.90;99.90;;;;;;5061108;28;20032;-90
2023/01/05 08:28:51;;;;;;;24.25;4.40;;;10.00;99.90;;;;;;5050930;28;20059;-89
2023/01/05 08:31:18;;;;;;;27.80;4.97;;;9.80;99.90;;;;;;5077842;28;20139;-90
2023/01/05 08:33:50;;;;;;;30.23;5.32;;;9.90;99.90;;;;;;5060900;28;20047;-91
2023/01/05 08:36:18;;;;;;;26.52;4.85;;;10.00;99.90;;;;;;5078031;28;20040;-89
2023/01/05 08:38:48;;;;;;;32.20;5.45;;;9.90;99.90;;;;;;5061265;28;20061;-88
2023/01/05 08:41:17;;;;;;;29.85;5.32;;;9.90;99.90;;;;;;5060877;28;20135;-91
2023/01/05 08:43:47;;;;;;;34.70;4.80;;;9.90;99.90;;;;;;5062747;28;20045;-92
2023/01/05 08:46:17;;;;;;;26.83;4.18;;;10.00;99.90;;;;;;5055463;28;20051;-90
2023/01/05 08:49:00;;;;;;;24.77;4.60;;;9.90;99.90;;;;;;5052934;28;20046;-91
2023/01/05 08:51:32;;;;;;;29.38;5.82;;;10.00;99.90;;;;;;5060921;28;20507;-90
2023/01/05 08:53:58;;;;;;;31.38;5.10;;;8.80;99.90;;;;;;5060927;28;20119;-90
2023/01/05 08:56:49;;;;;;;28.65;5.30;;;10.00;99.90;;;;;;5061093;28;20174;-90
2023/01/05 08:59:30;;;;;;;25.02;4.63;;;9.30;99.90;;;;;;5078708;28;20047;-91
2023/01/05 09:02:01;;;;;;;27.42;5.82;;;9.20;99.90;;;;;;5044540;28;20621;-91
2023/01/05 09:04:27;;;;;;;23.63;4.88;;;9.10;99.90;;;;;;5044386;28;20403;-90
2023/01/05 09:06:55;;;;;;;24.38;5.28;;;10.10;99.90;;;;;;5061575;28;20043;-90
2023/01/05 09:09:27;;;;;;;27.65;5.18;;;10.00;99.90;;;;;;5045144;28;20042;-91
2023/01/05 09:12:03;;;;;;;28.40;5.18;;;10.10;99.90;;;;;;5050855;28;20079;-92
2023/01/05 09:14:28;;;;;;;;;;;10.00;99.90;;;;;;5056069;28;20040;-91
2023/01/05 09:16:57;;;;;;;26.37;5.83;;;10.10;99.90;;;;;;5063498;28;19999;-92
2023/01/05 09:19:23;;;;;;;32.75;5.90;;;9.50;99.90;;;;;;5064356;28;20059;-90
2023/01/05 09:21:59;;;;;;;;;;;;;;;;;;;;;
2023/01/05 09:24:33;;;;;;;25.10;5.50;;;10.00;99.90;;;;;;5088299;28;20051;-91
2023/01/05 09:27:25;;;;;;;31.30;6.07;;;10.20;99.90;;;;;;5063257;28;20043;-91
2023/01/05 09:29:55;;;;;;;23.83;4.63;;;9.40;99.90;;;;;;5060817;28;20044;-91
2023/01/05 09:32:22;;;;;;;24.42;4.80;;;10.00;99.90;;;;;;5044673;28;20094;-90
2023/01/05 09:34:54;;;;;;;20.27;4.20;;;10.10;99.90;;;;;;5060303;28;20089;-90
2023/01/05 09:37:30;;;;;;;22.92;4.20;;;11.30;99.90;;;;;;5078008;28;20070;-91
2023/01/05 09:40:11;;;;;;;25.33;4.95;;;10.10;99.90;;;;;;5044457;28;20059;-90
2023/01/05 09:42:44;;;;;;;17.50;3.75;;;11.10;99.90;;;;;;5059690;28;20051;-91
2023/01/05 09:45:52;;;;;;;19.30;4.05;;;10.30;99.90;;;;;;5077192;28;20400;-91
2023/01/05 09:48:18;;;;;;;28.25;4.75;;;10.50;99.90;;;;;;5060240;28;20086;-92
2023/01/05 09:50:48;;;;;;;16.88;3.80;;;10.10;99.90;;;;;;5056619;28;20116;-91
2023/01/05 09:53:38;;;;;;;21.38;4.13;;;10.40;99.90;;;;;;5056385;28;20036;-91
2023/01/05 09:56:05;;;;;;;24.88;4.65;;;10.10;99.90;;;;;;5091492;28;20035;-90
2023/01/05 09:58:45;;;;;;;24.02;4.40;;;10.10;99.90;;;;;;5041165;28;20036;-90
2023/01/05 10:01:21;;;;;;;21.45;4.60;;;10.10;99.90;;;;;;5057487;28;20365;-90
2023/01/05 10:04:17;;;;;;;30.02;5.10;;;10.20;99.90;;;;;;5058539;28;20496;-91
2023/01/05 10:07:03;;;;;;;;;;;;;;;;;;;;;
2023/01/05 10:14:05;;;;;;;18.73;3.97;;;11.50;99.90;;;;;;5093265;28;20085;-92
2023/01/05 10:17:12;;;;;;;20.80;4.05;;;10.10;99.90;;;;;;5044496;28;20055;-91
2023/01/05 10:19:47;;;;;;;24.60;4.33;;;10.50;99.90;;;;;;5074510;28;20492;-91
2023/01/05 10:22:52;;;;;;;24.93;5.23;;;10.50;99.90;;;;;;5054962;28;20595;-91
2023/01/05 10:28:52;;;;;;;25.90;5.60;;;10.30;99.90;;;;;;5061213;28;20083;-91
2023/01/05 10:31:52;;;;;;;;;;;;;;;;;;;;;
2023/01/05 10:34:58;;;;;;;26.92;5.68;;;10.40;99.90;;;;;;5075659;28;20056;-91
2023/01/05 10:38:13;;;;;;;;;;;;;;;;;;;;;
2023/01/05 10:41:03;;;;;;;25.20;6.15;;;10.40;99.90;;;;;;5064775;28;20048;-91
2023/01/05 10:44:36;;;;;;;;;;;;;;;;;;;;;
2023/01/05 10:47:15;;;;;;;28.27;7.22;;;10.40;99.90;;;;;;5075534;28;20040;-91
2023/01/05 10:49:51;;;;;;;28.67;6.93;;;9.20;99.90;;;;;;5074033;28;20032;-91
2023/01/05 10:52:35;;;;;;;;;;;;;;;;;;;;;
2023/01/05 10:55:12;;;;;;;24.40;6.55;;;10.40;99.90;;;;;;5074154;28;20048;-91
2023/01/05 10:57:50;;;;;;;29.73;7.53;;;10.60;99.90;;;;;;5057757;28;20086;-90
2023/01/05 11:00:55;;;;;;;;;;;;;;;;;;;;;
2023/01/05 11:03:28;;;;;;;28.45;5.95;;;10.50;99.90;;;;;;5040096;28;20380;-89
2023/01/05 11:06:07;;;;;;;25.17;5.63;;;10.60;99.90;;;;;;5075990;28;20094;-91
2023/01/05 11:09:04;;;;;;;26.13;5.85;;;10.60;99.90;;;;;;5078041;28;20082;-91
2023/01/05 11:12:04;;;;;;;;;;;;;;;;;;;;;
2023/01/05 11:15:15;;;;;;;29.13;6.38;;;10.50;99.90;;;;;;5046585;28;20055;-92
2023/01/05 11:17:53;;;;;;;30.70;7.10;;;10.50;99.90;;;;;;5071431;28;20040;-91
2023/01/05 11:21:14;;;;;;;27.55;6.65;;;10.60;99.90;;;;;;5060070;28;20057;-94
2023/01/05 11:24:25;;;;;;;27.13;6.20;;;10.60;99.90;;;;;;5033715;28;20047;-92
2023/01/05 11:38:03;;;;;;;20.25;5.03;;;10.50;99.90;;;;;;5023775;28;20066;-92
2023/01/05 11:41:09;;;;;;;20.70;5.07;;;10.60;99.90;;;;;;5065151;28;20484;-92
2023/01/05 11:50:55;;;;;;;;;;;;;;;;;;;;;
2023/01/05 11:54:39;;;;;;;21.45;4.35;;;10.10;99.90;;;;;;5051783;28;20059;-91
2023/01/05 11:57:29;;;;;;;;;;;;;;;;;;;;;
2023/01/05 12:00:36;;;;;;;;;;;;;;;;;;;;;
2023/01/05 12:03:57;;;;;;;;;;;;;;;;;;;;;
2023/01/05 12:07:01;;;;;;;23.63;4.35;;;11.10;99.90;;;;;;4976156;28;20096;-93
2023/01/05 12:17:40;;;;;;;20.70;3.90;;;10.40;99.90;;;;;;5043528;28;20167;-92
2023/01/05 12:24:46;;;;;;;30.70;4.85;;;10.70;99.90;;;;;;5063235;28;20117;-92
2023/01/05 12:27:43;;;;;;;23.35;4.38;;;9.90;99.90;;;;;;5058964;28;20511;-93
2023/01/05 12:30:36;;;;;;;;;;;;;;;;;;;;;
2023/01/05 12:33:54;;;;;;;;;;;;;;;;;;;;;
2023/01/05 12:40:24;;;;;;;21.38;4.60;;;10.60;99.90;;;;;;5060183;28;20037;-91
2023/01/05 12:43:58;;;;;;;;;;;;;;;;;;;;;
2023/01/05 12:50:45;;;;;;;;;;;;;;;;;;;;;
2023/01/05 12:54:20;;;;;;;25.95;5.30;;;10.20;99.90;;;;;;5098147;28;20103;-93
2023/01/05 12:57:41;;;;;;;;;;;;;;;;;;;;;
2023/01/05 13:07:32;;;;;;;23.10;4.68;;;10.70;99.90;;;;;;4995717;28;20540;-84
2023/01/05 13:10:24;;;;;;;28.33;5.38;;;10.60;99.90;;;;;;4998555;28;20049;-84
2023/01/05 13:12:55;;;;;;;25.38;5.47;;;10.60;99.90;;;;;;5049945;28;20044;-84
2023/01/05 13:15:31;;;;;;;26.30;4.45;;;10.60;99.90;;;;;;5055128;28;20110;-84
2023/01/05 13:17:59;;;;;;;20.33;4.80;;;10.60;99.90;;;;;;5056641;28;20559;-84
2023/01/05 13:20:40;;;;;;;25.90;4.47;;;10.60;99.90;;;;;;5055832;28;20491;-84
2023/01/05 13:23:15;;;;;;;27.92;4.18;;;10.50;99.90;;;;;;5072024;28;20093;-84
2023/01/05 13:25:54;;;;;;;21.42;4.90;;;10.50;99.90;;;;;;5056218;28;20449;-84
2023/01/05 13:28:22;;;;;;;23.05;5.18;;;10.50;99.90;;;;;;5055995;28;20141;-84
2023/01/05 13:31:03;;;;;;;25.38;4.63;;;10.50;99.90;;;;;;5072471;28;20047;-84
2023/01/05 13:33:43;;;;;;;20.42;4.40;;;10.50;99.90;;;;;;5054269;28;20048;-84
2023/01/05 13:36:09;;;;;;;21.65;5.22;;;10.60;99.90;;;;;;5055806;28;20040;-84
2023/01/05 13:39:04;;;;;;;23.02;4.30;;;10.50;99.90;;;;;;5055511;28;20032;-84
2023/01/05 13:41:48;;;;;;;24.08;4.28;;;10.50;99.90;;;;;;5055506;28;20043;-84
2023/01/05 13:44:32;;;;;;;31.38;4.80;;;10.50;99.90;;;;;;5071667;28;20461;-84
2023/01/05 13:47:04;;;;;;;23.70;4.63;;;10.50;99.90;;;;;;5055481;28;20044;-84
2023/01/05 13:49:46;;;;;;;25.00;5.30;;;10.50;99.90;;;;;;5055665;28;20048;-84
2023/01/05 13:52:31;;;;;;;26.52;4.72;;;10.50;99.90;;;;;;5055477;28;20498;-84
2023/01/05 13:55:00;;;;;;;24.10;4.10;;;10.50;99.90;;;;;;5054985;28;20048;-84
2023/01/05 13:57:33;;;;;;;20.20;4.65;;;10.50;99.90;;;;;;5054983;28;20044;-84
2023/01/05 14:00:06;;;;;;;25.33;4.35;;;10.50;99.90;;;;;;5055958;28;20046;-84
2023/01/05 14:02:43;;;;;;;30.67;4.85;;;10.60;99.90;;;;;;5055792;28;20392;-84
2023/01/05 14:05:15;;;;;;;26.33;4.18;;;10.50;99.90;;;;;;5072048;28;20500;-84
2023/01/05 14:07:41;;;;;;;27.80;5.15;;;10.60;99.90;;;;;;5046810;28;20047;-84
2023/01/05 14:10:24;;;;;;;26.73;4.90;;;10.60;99.90;;;;;;5071790;28;20384;-84
2023/01/05 14:12:52;;;;;;;21.40;4.55;;;10.60;99.90;;;;;;5072328;28;20050;-84
2023/01/05 14:15:41;;;;;;;20.73;3.78;;;10.60;99.90;;;;;;5039469;28;20055;-84
2023/01/05 14:18:11;;;;;;;24.27;5.38;;;10.70;99.90;;;;;;5054377;28;20036;-84
2023/01/05 14:20:39;;;;;;;25.60;4.47;;;10.60;99.90;;;;;;5071127;28;20048;-84
2023/01/05 14:23:24;;;;;;;22.52;4.45;;;10.60;99.90;;;;;;5055103;28;20043;-84
2023/01/05 14:25:54;;;;;;;24.58;5.07;;;10.60;99.90;;;;;;5054194;28;20050;-84
2023/01/05 14:28:28;;;;;;;27.13;5.00;;;10.50;99.90;;;;;;5071617;28;20119;-84
2023/01/05 14:31:13;;;;;;;33.03;5.47;;;10.50;99.90;;;;;;5071644;28;20507;-84
2023/01/05 14:33:56;;;;;;;26.13;5.53;;;10.50;99.90;;;;;;5053889;28;20051;-84
2023/01/05 14:36:50;;;;;;;28.55;4.85;;;10.50;99.90;;;;;;5050097;28;20069;-84
2023/01/05 14:39:19;;;;;;;33.92;5.63;;;10.50;99.90;;;;;;5071800;28;20036;-84
2023/01/05 14:42:00;;;;;;;35.50;5.35;;;10.50;99.90;;;;;;5054848;28;20137;-84
2023/01/05 14:44:42;;;;;;;29.85;5.53;;;10.40;99.90;;;;;;5054967;28;20389;-84
2023/01/05 14:47:09;;;;;;;26.85;5.57;;;10.40;99.90;;;;;;5055116;28;20039;-84
2023/01/05 14:49:54;;;;;;;37.95;7.10;;;10.40;99.90;;;;;;5038405;28;20117;-84
2023/01/05 14:52:51;;;;;;;32.67;6.18;;;10.40;99.90;;;;;;5055374;28;20044;-84
2023/01/05 14:55:22;;;;;;;26.65;5.88;;;10.40;99.90;;;;;;5054779;28;20080;-84
2023/01/05 14:57:51;;;;;;;24.88;5.30;;;10.30;99.90;;;;;;5070567;28;20044;-84